sensor_id;sensor_type;location;lat;lon;timestamp;temperature;humidity
66598;DHT22;57424;53.128;6.406;2022-12-07T08:10:17;17.20;53.20
66598;DHT22;57424;53.128;6.406;2022-12-07T08:12:43;17.30;53.30
66598;DHT22;57424;53.128;6.406;2022-12-07T08:15:29;17.30;53.20
66598;DHT22;57424;53.128;6.406;2022-12-07T08:17:55;17.40;53.30
66598;DHT22;57424;53.128;6.406;2022-12-07T08:20:20;17.40;53.30
66598;DHT22;57424;53.128;6.406;2022-12-07T08:22:46;17.40;53.30
66598;DHT22;57424;53.128;6.406;2022-12-07T08:25:11;17.40;53.30
66598;DHT22;57424;53.128;6.406;2022-12-07T08:27:37;17.40;53.20
66598;DHT22;57424;53.128;6.406;2022-12-07T08:30:03;17.50;53.20
66598;DHT22;57424;53.128;6.406;2022-12-07T08:32:28;17.50;53.10
66598;DHT22;57424;53.128;6.406;2022-12-07T08:34:54;17.50;53.00
66598;DHT22;57424;53.128;6.406;2022-12-07T08:37:20;17.50;53.00
66598;DHT22;57424;53.128;6.406;2022-12-07T08:39:45;17.60;53.00
66598;DHT22;57424;53.128;6.406;2022-12-07T08:42:11;17.60;53.00
66598;DHT22;57424;53.128;6.406;2022-12-07T08:44:36;17.60;53.00
66598;DHT22;57424;53.128;6.406;2022-12-07T08:47:04;17.60;52.90
66598;DHT22;57424;53.128;6.406;2022-12-07T08:49:37;17.60;52.90
66598;DHT22;57424;53.128;6.406;2022-12-07T08:52:05;17.70;53.00
66598;DHT22;57424;53.128;6.406;2022-12-07T08:54:31;17.70;52.90
66598;DHT22;57424;53.128;6.406;2022-12-07T08:56:58;17.70;53.00
66598;DHT22;57424;53.128;6.406;2022-12-07T08:59:24;17.80;53.00
66598;DHT22;57424;53.128;6.406;2022-12-07T09:01:50;17.80;53.00
66598;DHT22;57424;53.128;6.406;2022-12-07T09:04:16;17.90;53.10
66598;DHT22;57424;53.128;6.406;2022-12-07T09:06:41;17.90;53.10
66598;DHT22;57424;53.128;6.406;2022-12-07T09:09:08;17.90;53.00
66598;DHT22;57424;53.128;6.406;2022-12-07T09:11:34;18.00;53.00
66598;DHT22;57424;53.128;6.406;2022-12-07T09:14:00;18.00;52.90
66598;DHT22;57424;53.128;6.406;2022-12-07T09:16:25;18.00;52.70
66598;DHT22;57424;53.128;6.406;2022-12-07T09:18:51;18.00;52.70
66598;DHT22;57424;53.128;6.406;2022-12-07T09:21:16;18.00;52.70
66598;DHT22;57424;53.128;6.406;2022-12-07T09:23:42;18.10;52.80
66598;DHT22;57424;53.128;6.406;2022-12-07T09:26:08;18.10;52.80
66598;DHT22;57424;53.128;6.406;2022-12-07T09:28:34;18.10;52.90
66598;DHT22;57424;53.128;6.406;2022-12-07T09:30:59;18.10;53.50
66598;DHT22;57424;53.128;6.406;2022-12-07T09:33:25;18.20;52.70
66598;DHT22;57424;53.128;6.406;2022-12-07T09:35:51;18.10;52.60
66598;DHT22;57424;53.128;6.406;2022-12-07T09:38:18;18.20;52.60
66598;DHT22;57424;53.128;6.406;2022-12-07T09:40:45;18.20;53.20
66598;DHT22;57424;53.128;6.406;2022-12-07T09:43:22;18.20;52.60
66598;DHT22;57424;53.128;6.406;2022-12-07T09:45:54;18.30;52.60
66598;DHT22;57424;53.128;6.406;2022-12-07T09:50:59;18.30;52.60
66598;DHT22;57424;53.128;6.406;2022-12-07T09:53:32;18.30;52.60
66598;DHT22;57424;53.128;6.406;2022-12-07T09:55:59;18.40;52.60
66598;DHT22;57424;53.128;6.406;2022-12-07T09:58:27;18.40;52.50
66598;DHT22;57424;53.128;6.406;2022-12-07T10:03:39;18.40;52.40
66598;DHT22;57424;53.128;6.406;2022-12-07T10:06:06;18.40;52.40
66598;DHT22;57424;53.128;6.406;2022-12-07T10:08:32;18.40;52.50
66598;DHT22;57424;53.128;6.406;2022-12-07T10:10:59;18.40;52.50
66598;DHT22;57424;53.128;6.406;2022-12-07T10:13:56;18.50;52.50
66598;DHT22;57424;53.128;6.406;2022-12-07T10:16:40;18.50;52.40
66598;DHT22;57424;53.128;6.406;2022-12-07T10:19:32;18.60;52.50
66598;DHT22;57424;53.128;6.406;2022-12-07T10:22:13;18.60;52.50
66598;DHT22;57424;53.128;6.406;2022-12-07T10:24:39;18.60;52.40
66598;DHT22;57424;53.128;6.406;2022-12-07T10:29:48;18.70;52.50
66598;DHT22;57424;53.128;6.406;2022-12-07T10:34:41;18.70;52.30
66598;DHT22;57424;53.128;6.406;2022-12-07T10:39:53;18.70;52.30
66598;DHT22;57424;53.128;6.406;2022-12-07T10:42:25;18.70;52.20
66598;DHT22;57424;53.128;6.406;2022-12-07T10:45:15;18.80;52.20
66598;DHT22;57424;53.128;6.406;2022-12-07T11:04:33;18.80;52.30
66598;DHT22;57424;53.128;6.406;2022-12-07T11:07:10;18.80;52.30
66598;DHT22;57424;53.128;6.406;2022-12-07T11:12:12;18.80;52.40
66598;DHT22;57424;53.128;6.406;2022-12-07T11:15:02;18.80;52.40
66598;DHT22;57424;53.128;6.406;2022-12-07T11:17:45;18.90;52.40
66598;DHT22;57424;53.128;6.406;2022-12-07T11:20:35;18.90;52.50
66598;DHT22;57424;53.128;6.406;2022-12-07T11:23:14;18.90;52.50
66598;DHT22;57424;53.128;6.406;2022-12-07T11:30:59;19.00;52.30
66598;DHT22;57424;53.128;6.406;2022-12-07T11:36:17;18.90;52.00
66598;DHT22;57424;53.128;6.406;2022-12-07T11:38:53;18.90;52.00
66598;DHT22;57424;53.128;6.406;2022-12-07T11:41:23;19.00;52.10
66598;DHT22;57424;53.128;6.406;2022-12-07T11:43:58;18.90;52.00
66598;DHT22;57424;53.128;6.406;2022-12-07T11:46:36;18.90;51.90
66598;DHT22;57424;53.128;6.406;2022-12-07T11:51:52;18.90;51.80
66598;DHT22;57424;53.128;6.406;2022-12-07T11:54:23;18.90;51.70
66598;DHT22;57424;53.128;6.406;2022-12-07T11:56:51;18.90;51.70
66598;DHT22;57424;53.128;6.406;2022-12-07T11:59:23;18.90;51.70
66598;DHT22;57424;53.128;6.406;2022-12-07T12:01:55;18.90;51.60
66598;DHT22;57424;53.128;6.406;2022-12-07T12:04:40;18.90;51.60
66598;DHT22;57424;53.128;6.406;2022-12-07T12:07:16;18.90;51.60
66598;DHT22;57424;53.128;6.406;2022-12-07T12:09:53;18.90;51.70
66598;DHT22;57424;53.128;6.406;2022-12-07T12:38:33;19.50;50.50
66598;DHT22;57424;53.128;6.406;2022-12-07T17:51:32;18.80;52.20
66598;DHT22;57424;53.128;6.406;2022-12-07T17:54:17;18.70;51.50
66598;DHT22;57424;53.128;6.406;2022-12-07T17:56:43;18.70;51.50
66598;DHT22;57424;53.128;6.406;2022-12-07T17:59:09;18.70;51.50
66598;DHT22;57424;53.128;6.406;2022-12-07T18:01:35;18.70;51.50
66598;DHT22;57424;53.128;6.406;2022-12-07T18:04:01;18.70;51.60
66598;DHT22;57424;53.128;6.406;2022-12-07T18:06:27;18.70;51.70
66598;DHT22;57424;53.128;6.406;2022-12-07T18:08:53;18.70;51.90
66598;DHT22;57424;53.128;6.406;2022-12-07T18:11:19;18.70;51.90
66598;DHT22;57424;53.128;6.406;2022-12-07T18:13:44;18.70;51.80
66598;DHT22;57424;53.128;6.406;2022-12-07T18:16:12;18.70;51.80
66598;DHT22;57424;53.128;6.406;2022-12-07T18:18:38;18.70;51.70
66598;DHT22;57424;53.128;6.406;2022-12-07T18:21:08;18.70;51.80
66598;DHT22;57424;53.128;6.406;2022-12-07T18:23:38;18.70;51.70
66598;DHT22;57424;53.128;6.406;2022-12-07T18:26:04;18.70;51.70
66598;DHT22;57424;53.128;6.406;2022-12-07T18:28:29;18.70;51.70
66598;DHT22;57424;53.128;6.406;2022-12-07T18:30:55;18.70;51.70
66598;DHT22;57424;53.128;6.406;2022-12-07T18:33:21;18.70;51.70
66598;DHT22;57424;53.128;6.406;2022-12-07T18:35:47;18.70;51.70
66598;DHT22;57424;53.128;6.406;2022-12-07T18:38:14;18.70;51.70
66598;DHT22;57424;53.128;6.406;2022-12-07T18:40:41;18.70;51.70
66598;DHT22;57424;53.128;6.406;2022-12-07T18:43:07;18.70;51.70
66598;DHT22;57424;53.128;6.406;2022-12-07T18:45:41;18.70;51.70
66598;DHT22;57424;53.128;6.406;2022-12-07T18:48:08;18.60;51.50
66598;DHT22;57424;53.128;6.406;2022-12-07T18:50:34;18.60;51.60
66598;DHT22;57424;53.128;6.406;2022-12-07T18:53:01;18.60;51.50
66598;DHT22;57424;53.128;6.406;2022-12-07T18:55:28;18.60;51.50
66598;DHT22;57424;53.128;6.406;2022-12-07T18:57:55;18.60;51.50
66598;DHT22;57424;53.128;6.406;2022-12-07T19:00:22;18.60;51.50
66598;DHT22;57424;53.128;6.406;2022-12-07T19:02:52;18.60;51.50
66598;DHT22;57424;53.128;6.406;2022-12-07T19:05:17;18.60;51.50
66598;DHT22;57424;53.128;6.406;2022-12-07T19:07:44;18.60;51.50
66598;DHT22;57424;53.128;6.406;2022-12-07T19:10:10;18.60;51.50
66598;DHT22;57424;53.128;6.406;2022-12-07T19:12:37;18.60;51.50
66598;DHT22;57424;53.128;6.406;2022-12-07T19:15:03;18.60;51.50
66598;DHT22;57424;53.128;6.406;2022-12-07T19:17:29;18.60;51.40
66598;DHT22;57424;53.128;6.406;2022-12-07T19:19:54;18.60;51.50
66598;DHT22;57424;53.128;6.406;2022-12-07T19:22:21;18.60;51.40
66598;DHT22;57424;53.128;6.406;2022-12-07T19:24:50;18.60;51.40
66598;DHT22;57424;53.128;6.406;2022-12-07T19:27:17;18.60;51.40
66598;DHT22;57424;53.128;6.406;2022-12-07T19:29:43;18.60;51.40
66598;DHT22;57424;53.128;6.406;2022-12-07T19:32:09;18.60;51.40
66598;DHT22;57424;53.128;6.406;2022-12-07T19:34:39;18.60;51.40
66598;DHT22;57424;53.128;6.406;2022-12-07T19:37:06;18.60;51.40
66598;DHT22;57424;53.128;6.406;2022-12-07T19:39:32;18.60;51.40
66598;DHT22;57424;53.128;6.406;2022-12-07T19:41:57;18.60;51.40
66598;DHT22;57424;53.128;6.406;2022-12-07T19:44:25;18.60;51.40
66598;DHT22;57424;53.128;6.406;2022-12-07T19:46:53;18.60;51.40
66598;DHT22;57424;53.128;6.406;2022-12-07T19:49:23;18.60;51.40
66598;DHT22;57424;53.128;6.406;2022-12-07T19:51:51;18.60;51.40
66598;DHT22;57424;53.128;6.406;2022-12-07T19:54:19;18.60;51.40
66598;DHT22;57424;53.128;6.406;2022-12-07T19:56:45;18.60;51.30
66598;DHT22;57424;53.128;6.406;2022-12-07T19:59:12;18.60;53.80
66598;DHT22;57424;53.128;6.406;2022-12-07T20:01:38;18.70;54.30
66598;DHT22;57424;53.128;6.406;2022-12-07T20:04:06;18.70;55.90
66598;DHT22;57424;53.128;6.406;2022-12-07T20:06:33;18.70;54.10
66598;DHT22;57424;53.128;6.406;2022-12-07T20:08:58;18.60;51.40
66598;DHT22;57424;53.128;6.406;2022-12-07T20:11:24;18.60;51.50
66598;DHT22;57424;53.128;6.406;2022-12-07T20:14:09;18.60;51.50
66598;DHT22;57424;53.128;6.406;2022-12-07T20:16:36;18.60;51.50
66598;DHT22;57424;53.128;6.406;2022-12-07T20:19:04;18.60;51.40
66598;DHT22;57424;53.128;6.406;2022-12-07T20:21:30;18.60;51.60
66598;DHT22;57424;53.128;6.406;2022-12-07T20:23:58;18.50;51.50
66598;DHT22;57424;53.128;6.406;2022-12-07T20:26:24;18.60;51.50
66598;DHT22;57424;53.128;6.406;2022-12-07T20:28:50;18.60;51.50
66598;DHT22;57424;53.128;6.406;2022-12-07T20:31:16;18.60;51.50
66598;DHT22;57424;53.128;6.406;2022-12-07T20:33:43;18.60;51.50
66598;DHT22;57424;53.128;6.406;2022-12-07T20:36:13;18.60;51.50
66598;DHT22;57424;53.128;6.406;2022-12-07T20:38:39;18.50;51.40
66598;DHT22;57424;53.128;6.406;2022-12-07T20:41:08;18.50;51.40
66598;DHT22;57424;53.128;6.406;2022-12-07T20:43:54;18.50;51.30
66598;DHT22;57424;53.128;6.406;2022-12-07T20:46:20;18.50;51.40
66598;DHT22;57424;53.128;6.406;2022-12-07T20:48:45;18.50;51.30
66598;DHT22;57424;53.128;6.406;2022-12-07T20:51:11;18.50;51.30
66598;DHT22;57424;53.128;6.406;2022-12-07T20:53:36;18.50;51.40
66598;DHT22;57424;53.128;6.406;2022-12-07T20:56:02;18.50;51.30
66598;DHT22;57424;53.128;6.406;2022-12-07T20:58:27;18.50;51.20
66598;DHT22;57424;53.128;6.406;2022-12-07T21:00:59;18.50;51.20
66598;DHT22;57424;53.128;6.406;2022-12-07T21:03:25;18.50;51.10
66598;DHT22;57424;53.128;6.406;2022-12-07T21:05:50;18.50;51.10
66598;DHT22;57424;53.128;6.406;2022-12-07T21:08:16;18.40;51.10
66598;DHT22;57424;53.128;6.406;2022-12-07T21:10:41;18.50;51.20
66598;DHT22;57424;53.128;6.406;2022-12-07T21:13:07;18.50;51.20
66598;DHT22;57424;53.128;6.406;2022-12-07T21:15:32;18.50;51.30
66598;DHT22;57424;53.128;6.406;2022-12-07T21:17:58;18.40;51.30
66598;DHT22;57424;53.128;6.406;2022-12-07T21:20:24;18.50;51.30
66598;DHT22;57424;53.128;6.406;2022-12-07T21:22:49;18.50;51.30
66598;DHT22;57424;53.128;6.406;2022-12-07T21:25:15;18.50;51.30
66598;DHT22;57424;53.128;6.406;2022-12-07T21:27:40;18.50;51.30
66598;DHT22;57424;53.128;6.406;2022-12-07T21:30:06;18.50;51.30
66598;DHT22;57424;53.128;6.406;2022-12-07T21:32:32;18.50;51.30
66598;DHT22;57424;53.128;6.406;2022-12-07T21:34:57;18.50;51.30
66598;DHT22;57424;53.128;6.406;2022-12-07T21:37:23;18.50;51.30
66598;DHT22;57424;53.128;6.406;2022-12-07T21:39:49;18.50;51.30
66598;DHT22;57424;53.128;6.406;2022-12-07T21:42:14;18.50;51.30
66598;DHT22;57424;53.128;6.406;2022-12-07T21:44:40;18.50;51.20
66598;DHT22;57424;53.128;6.406;2022-12-07T21:47:05;18.50;51.20
66598;DHT22;57424;53.128;6.406;2022-12-07T21:49:31;18.50;51.20
66598;DHT22;57424;53.128;6.406;2022-12-07T21:51:59;18.50;51.20
66598;DHT22;57424;53.128;6.406;2022-12-07T21:54:25;18.50;51.10
66598;DHT22;57424;53.128;6.406;2022-12-07T21:56:50;18.50;51.10
66598;DHT22;57424;53.128;6.406;2022-12-07T21:59:16;18.50;51.00
66598;DHT22;57424;53.128;6.406;2022-12-07T22:01:43;18.50;51.00
66598;DHT22;57424;53.128;6.406;2022-12-07T22:04:14;18.50;51.00
66598;DHT22;57424;53.128;6.406;2022-12-07T22:06:41;18.50;50.90
66598;DHT22;57424;53.128;6.406;2022-12-07T22:09:07;18.50;50.90
66598;DHT22;57424;53.128;6.406;2022-12-07T22:11:33;18.50;50.90
66598;DHT22;57424;53.128;6.406;2022-12-07T22:14:01;18.50;50.90
66598;DHT22;57424;53.128;6.406;2022-12-07T22:16:45;18.40;50.80
66598;DHT22;57424;53.128;6.406;2022-12-07T22:19:11;18.40;50.80
66598;DHT22;57424;53.128;6.406;2022-12-07T22:21:37;18.40;50.80
66598;DHT22;57424;53.128;6.406;2022-12-07T22:24:03;18.40;50.80
66598;DHT22;57424;53.128;6.406;2022-12-07T22:26:29;18.40;50.80
66598;DHT22;57424;53.128;6.406;2022-12-07T22:28:55;18.40;50.70
66598;DHT22;57424;53.128;6.406;2022-12-07T22:31:21;18.30;50.60
66598;DHT22;57424;53.128;6.406;2022-12-07T22:33:47;18.30;50.60
66598;DHT22;57424;53.128;6.406;2022-12-07T22:36:13;18.30;50.60
66598;DHT22;57424;53.128;6.406;2022-12-07T22:38:40;18.30;50.70
66598;DHT22;57424;53.128;6.406;2022-12-07T22:41:16;18.30;50.60
66598;DHT22;57424;53.128;6.406;2022-12-07T22:43:43;18.30;50.60
66598;DHT22;57424;53.128;6.406;2022-12-07T22:46:09;18.30;50.60
66598;DHT22;57424;53.128;6.406;2022-12-07T22:48:34;18.20;50.50
66598;DHT22;57424;53.128;6.406;2022-12-07T22:51:01;18.20;50.50
66598;DHT22;57424;53.128;6.406;2022-12-07T22:53:27;18.20;50.50
66598;DHT22;57424;53.128;6.406;2022-12-07T22:55:52;18.20;50.50
66598;DHT22;57424;53.128;6.406;2022-12-07T22:58:18;18.20;50.50
66598;DHT22;57424;53.128;6.406;2022-12-07T23:00:44;18.20;50.50
66598;DHT22;57424;53.128;6.406;2022-12-07T23:03:10;18.10;50.40
66598;DHT22;57424;53.128;6.406;2022-12-07T23:05:43;18.10;50.40
66598;DHT22;57424;53.128;6.406;2022-12-07T23:08:10;18.10;50.40
66598;DHT22;57424;53.128;6.406;2022-12-07T23:10:36;18.10;50.40
66598;DHT22;57424;53.128;6.406;2022-12-07T23:13:05;18.10;50.40
66598;DHT22;57424;53.128;6.406;2022-12-07T23:15:49;18.10;50.40
66598;DHT22;57424;53.128;6.406;2022-12-07T23:18:15;18.10;50.40
66598;DHT22;57424;53.128;6.406;2022-12-07T23:20:40;18.10;50.40
66598;DHT22;57424;53.128;6.406;2022-12-07T23:23:06;18.00;50.30
66598;DHT22;57424;53.128;6.406;2022-12-07T23:25:32;18.00;50.30
66598;DHT22;57424;53.128;6.406;2022-12-07T23:27:57;18.00;50.30
66598;DHT22;57424;53.128;6.406;2022-12-07T23:30:23;18.00;50.30
66598;DHT22;57424;53.128;6.406;2022-12-07T23:32:48;18.00;50.30
66598;DHT22;57424;53.128;6.406;2022-12-07T23:35:14;18.00;50.30
66598;DHT22;57424;53.128;6.406;2022-12-07T23:37:39;18.00;50.30
66598;DHT22;57424;53.128;6.406;2022-12-07T23:40:06;18.00;50.30
66598;DHT22;57424;53.128;6.406;2022-12-07T23:42:32;18.00;50.30
66598;DHT22;57424;53.128;6.406;2022-12-07T23:44:57;17.90;50.20
66598;DHT22;57424;53.128;6.406;2022-12-07T23:47:23;17.90;50.30
66598;DHT22;57424;53.128;6.406;2022-12-07T23:49:48;17.90;50.30
66598;DHT22;57424;53.128;6.406;2022-12-07T23:52:14;17.90;50.20
66598;DHT22;57424;53.128;6.406;2022-12-07T23:54:39;17.90;50.20
66598;DHT22;57424;53.128;6.406;2022-12-07T23:57:05;17.90;50.20
66598;DHT22;57424;53.128;6.406;2022-12-07T23:59:31;17.80;50.10
